createdAt,value
2022-10-07T00:01:02.211Z,4.32
2022-10-07T00:03:30.317Z,4.40
2022-10-07T00:06:13.642Z,4.65
2022-10-07T00:08:43.965Z,4.28
2022-10-07T00:11:14.264Z,4.45
2022-10-07T00:13:43.662Z,4.35
2022-10-07T00:16:14.313Z,4.65
2022-10-07T00:18:41.902Z,4.10
2022-10-07T00:21:12.077Z,4.40
2022-10-07T00:23:40.392Z,4.50
2022-10-07T00:26:10.930Z,4.15
2022-10-07T00:28:38.520Z,4.55
2022-10-07T00:31:13.696Z,4.90
2022-10-07T00:33:41.791Z,4.10
2022-10-07T00:36:18.287Z,4.60
2022-10-07T00:38:46.048Z,3.90
2022-10-07T00:41:21.879Z,4.25
2022-10-07T00:43:49.464Z,6.20
2022-10-07T00:46:23.263Z,4.35
2022-10-07T00:48:50.834Z,5.07
2022-10-07T00:51:18.786Z,4.05
2022-10-07T00:53:51.013Z,3.88
2022-10-07T00:56:18.673Z,4.00
2022-10-07T00:58:47.953Z,4.47
2022-10-07T01:01:15.901Z,4.35
2022-10-07T01:03:45.963Z,4.00
2022-10-07T01:06:13.161Z,4.40
2022-10-07T01:08:40.747Z,4.38
2022-10-07T01:11:32.176Z,4.65
2022-10-07T01:14:31.055Z,3.65
2022-10-07T01:17:32.972Z,4.30
2022-10-07T01:20:00.192Z,4.38
2022-10-07T01:22:39.207Z,4.60
2022-10-07T01:25:42.694Z,4.10
2022-10-07T01:28:29.270Z,4.85
2022-10-07T01:31:00.519Z,4.40
2022-10-07T01:33:32.444Z,4.85
2022-10-07T01:36:07.275Z,4.90
2022-10-07T01:38:36.969Z,4.90
2022-10-07T01:41:10.290Z,5.13
2022-10-07T01:43:38.904Z,5.07
2022-10-07T01:46:09.848Z,5.32
2022-10-07T01:48:37.264Z,6.53
2022-10-07T01:51:09.050Z,5.72
2022-10-07T01:53:42.069Z,5.53
2022-10-07T01:56:28.425Z,5.88
2022-10-07T01:59:11.173Z,6.40
2022-10-07T02:01:53.822Z,6.75
2022-10-07T02:04:33.351Z,6.32
2022-10-07T02:07:36.869Z,6.85
2022-10-07T02:10:04.389Z,7.32
2022-10-07T02:12:51.587Z,8.23
2022-10-07T02:15:34.872Z,8.35
2022-10-07T02:18:07.416Z,8.75
2022-10-07T02:20:39.774Z,8.30
2022-10-07T02:23:12.854Z,8.27
2022-10-07T02:25:45.772Z,8.18
2022-10-07T02:28:16.225Z,8.02
2022-10-07T02:30:47.886Z,7.97
2022-10-07T02:33:15.677Z,7.95
2022-10-07T02:35:49.686Z,8.15
2022-10-07T02:38:18.705Z,8.05
2022-10-07T02:41:04.469Z,7.50
2022-10-07T02:43:44.756Z,8.00
2022-10-07T02:46:32.797Z,7.88
2022-10-07T02:49:07.861Z,8.68
2022-10-07T02:52:05.463Z,7.25
2022-10-07T02:54:58.039Z,6.63
2022-10-07T02:57:31.053Z,6.25
2022-10-07T03:00:01.189Z,5.90
2022-10-07T03:02:40.837Z,6.15
2022-10-07T03:05:09.443Z,5.82
2022-10-07T03:07:37.284Z,6.20
2022-10-07T03:10:09.379Z,5.97
2022-10-07T03:12:37.218Z,6.38
2022-10-07T03:15:04.819Z,6.75
2022-10-07T03:17:32.172Z,6.20
2022-10-07T03:19:59.837Z,6.38
2022-10-07T03:22:27.485Z,6.30
2022-10-07T03:24:54.788Z,7.80
2022-10-07T03:27:22.033Z,7.30
2022-10-07T03:29:50.293Z,7.47
2022-10-07T03:32:18.072Z,6.40
2022-10-07T03:34:45.497Z,7.03
2022-10-07T03:37:12.691Z,6.32
2022-10-07T03:39:39.970Z,6.57
2022-10-07T03:42:07.184Z,6.80
2022-10-07T03:44:35.685Z,6.65
2022-10-07T03:47:07.599Z,7.82
2022-10-07T03:49:40.264Z,7.75
2022-10-07T03:52:07.416Z,7.20
2022-10-07T03:54:34.768Z,7.05
2022-10-07T03:57:01.964Z,6.75
2022-10-07T03:59:29.462Z,8.57
2022-10-07T04:01:56.944Z,6.68
2022-10-07T04:04:24.352Z,7.30
2022-10-07T04:06:51.924Z,7.07
2022-10-07T04:09:19.166Z,7.18
2022-10-07T04:11:46.385Z,6.30
2022-10-07T04:14:13.954Z,7.40
2022-10-07T04:16:42.217Z,7.70
2022-10-07T04:19:11.907Z,6.10
2022-10-07T04:21:39.184Z,6.63
2022-10-07T04:24:06.492Z,10.85
2022-10-07T04:26:35.620Z,7.03
2022-10-07T04:29:02.851Z,12.48
2022-10-07T04:31:30.651Z,7.38
2022-10-07T04:34:02.825Z,9.63
2022-10-07T04:36:36.039Z,6.45
2022-10-07T04:39:27.086Z,10.25
2022-10-07T04:42:06.022Z,8.10
2022-10-07T04:44:34.270Z,7.68
2022-10-07T04:47:08.082Z,11.27
2022-10-07T04:49:38.365Z,7.57
2022-10-07T04:52:08.506Z,7.03
2022-10-07T04:54:39.512Z,6.65
2022-10-07T04:57:10.222Z,10.50
2022-10-07T04:59:42.493Z,6.88
2022-10-07T05:02:11.960Z,6.85
2022-10-07T05:04:39.505Z,7.07
2022-10-07T05:07:06.664Z,6.53
2022-10-07T05:09:35.930Z,6.30
2022-10-07T05:12:03.273Z,6.60
2022-10-07T05:14:33.007Z,6.68
2022-10-07T05:17:01.149Z,6.18
2022-10-07T05:19:32.837Z,7.15
2022-10-07T05:22:00.117Z,6.10
2022-10-07T05:24:27.564Z,6.13
2022-10-07T05:26:55.342Z,6.25
2022-10-07T05:29:22.883Z,5.50
2022-10-07T05:31:53.765Z,6.07
2022-10-07T05:34:24.220Z,5.65
2022-10-07T05:36:53.375Z,6.30
2022-10-07T05:39:20.784Z,5.78
2022-10-07T05:41:51.930Z,6.63
2022-10-07T05:44:25.347Z,5.45
2022-10-07T05:46:55.480Z,5.63
2022-10-07T05:49:23.328Z,6.18
2022-10-07T05:51:51.617Z,5.43
2022-10-07T05:54:18.995Z,5.85
2022-10-07T05:56:46.563Z,14.05
2022-10-07T05:59:15.853Z,11.18
2022-10-07T06:01:45.343Z,6.18
2022-10-07T06:04:19.348Z,6.63
2022-10-07T06:06:48.547Z,8.63
2022-10-07T06:09:34.388Z,6.40
2022-10-07T06:12:25.665Z,6.22
2022-10-07T06:14:54.800Z,5.30
2022-10-07T06:17:22.617Z,7.07
2022-10-07T06:19:51.874Z,7.32
2022-10-07T06:22:21.916Z,6.20
2022-10-07T06:24:52.300Z,6.40
2022-10-07T06:27:20.198Z,6.32
2022-10-07T06:29:47.556Z,5.63
2022-10-07T06:32:14.891Z,6.63
2022-10-07T06:34:45.083Z,5.65
2022-10-07T06:37:13.420Z,8.75
2022-10-07T06:39:41.406Z,5.70
2022-10-07T06:42:09.549Z,6.03
2022-10-07T06:44:59.533Z,5.68
2022-10-07T06:47:26.942Z,5.90
2022-10-07T06:49:54.270Z,6.15
2022-10-07T06:52:21.591Z,6.30
2022-10-07T06:54:48.839Z,6.53
2022-10-07T06:57:43.691Z,6.75
2022-10-07T07:00:06.262Z,8.07
2022-10-07T07:02:36.392Z,8.75
2022-10-07T07:05:08.229Z,5.85
2022-10-07T07:07:36.033Z,6.70
2022-10-07T07:10:04.091Z,6.85
2022-10-07T07:12:33.441Z,6.30
2022-10-07T07:15:00.542Z,6.57
2022-10-07T07:17:27.896Z,5.85
2022-10-07T07:19:56.585Z,6.20
2022-10-07T07:22:23.810Z,6.15
2022-10-07T07:24:51.282Z,5.00
2022-10-07T07:27:18.837Z,6.10
2022-10-07T07:29:46.328Z,5.90
2022-10-07T07:32:13.662Z,5.38
2022-10-07T07:34:43.456Z,5.00
2022-10-07T07:37:15.095Z,5.82
2022-10-07T07:39:47.453Z,4.85
2022-10-07T07:42:19.013Z,4.97
2022-10-07T07:44:48.066Z,5.43
2022-10-07T07:47:17.344Z,4.85
2022-10-07T07:49:46.171Z,5.30
2022-10-07T07:52:20.585Z,5.55
2022-10-07T07:54:49.026Z,4.70
2022-10-07T07:57:16.612Z,4.47
2022-10-07T07:59:43.739Z,4.72
2022-10-07T08:02:13.769Z,4.80
2022-10-07T08:04:44.517Z,4.50
2022-10-07T08:07:15.083Z,4.32
2022-10-07T08:09:45.458Z,5.30
2022-10-07T08:12:17.228Z,5.03
2022-10-07T08:14:44.507Z,5.63
2022-10-07T08:17:13.246Z,6.35
2022-10-07T08:19:42.560Z,5.72
2022-10-07T08:22:10.502Z,5.47
2022-10-07T08:24:37.888Z,6.22
2022-10-07T08:27:05.489Z,5.93
2022-10-07T08:29:32.849Z,6.60
2022-10-07T08:31:59.982Z,6.32
2022-10-07T08:34:27.366Z,6.65
2022-10-07T08:36:56.509Z,5.47
2022-10-07T08:39:24.767Z,27.52
2022-10-07T08:42:13.633Z,15.75
2022-10-07T08:44:44.555Z,22.83
2022-10-07T08:47:48.449Z,5.60
2022-10-07T08:50:31.042Z,5.57
2022-10-07T08:53:05.846Z,17.60
2022-10-07T08:55:45.059Z,5.00
2022-10-07T08:58:29.906Z,7.15
2022-10-07T09:01:07.432Z,5.25
2022-10-07T09:04:06.075Z,4.20
2022-10-07T09:07:04.235Z,4.80
2022-10-07T09:09:53.910Z,5.43
2022-10-07T09:12:50.584Z,5.63
2022-10-07T09:15:23.973Z,4.57
2022-10-07T09:17:59.405Z,4.50
2022-10-07T09:20:40.233Z,5.40
2022-10-07T09:23:12.920Z,5.13
2022-10-07T09:25:44.302Z,6.68
2022-10-07T09:28:17.287Z,6.07
2022-10-07T09:30:44.844Z,5.32
2022-10-07T09:33:18.908Z,4.68
2022-10-07T09:35:57.572Z,9.55
2022-10-07T09:38:37.117Z,6.47
2022-10-07T09:41:31.992Z,5.68
2022-10-07T09:44:05.603Z,6.35
2022-10-07T09:46:52.676Z,5.13
2022-10-07T09:49:29.025Z,5.40
2022-10-07T09:52:11.256Z,4.15
2022-10-07T09:54:46.825Z,4.68
2022-10-07T09:57:31.199Z,4.47
2022-10-07T10:00:13.828Z,4.45
2022-10-07T10:03:05.179Z,4.70
2022-10-07T10:08:13.701Z,4.93
2022-10-07T10:10:51.548Z,4.13
2022-10-07T10:13:35.358Z,8.20
2022-10-07T10:16:06.169Z,4.32
2022-10-07T10:18:40.588Z,5.13
2022-10-07T10:21:28.898Z,6.47
2022-10-07T10:23:59.413Z,7.18
2022-10-07T10:26:34.676Z,6.07
2022-10-07T10:29:32.026Z,6.30
2022-10-07T10:32:02.597Z,23.05
2022-10-07T10:35:03.336Z,4.72
2022-10-07T10:37:48.309Z,18.08
2022-10-07T10:40:57.824Z,5.68
2022-10-07T10:43:25.002Z,5.18
2022-10-07T10:46:16.164Z,3.40
2022-10-07T10:49:01.796Z,8.43
2022-10-07T10:51:44.352Z,53.28
2022-10-07T10:54:18.133Z,18.15
2022-10-07T10:56:54.513Z,5.70
2022-10-07T10:59:49.636Z,3.60
2022-10-07T11:02:29.609Z,4.28
2022-10-07T11:05:17.589Z,4.70
2022-10-07T11:07:51.681Z,4.22
2022-10-07T11:10:26.390Z,3.70
2022-10-07T11:13:00.363Z,4.05
2022-10-07T11:15:33.663Z,4.30
2022-10-07T11:18:14.468Z,3.10
2022-10-07T11:20:48.305Z,15.98
2022-10-07T11:23:37.157Z,65.03
2022-10-07T11:26:29.986Z,14.32
2022-10-07T11:29:06.022Z,22.25
2022-10-07T11:31:47.870Z,7.38
2022-10-07T11:35:13.792Z,3.10
2022-10-07T11:37:54.780Z,24.63
2022-10-07T11:40:31.018Z,2.90
2022-10-07T11:43:09.262Z,19.55
2022-10-07T11:45:50.220Z,4.57
2022-10-07T11:50:56.072Z,3.17
2022-10-07T11:53:27.354Z,3.30
2022-10-07T11:56:12.645Z,3.00
2022-10-07T11:58:40.062Z,3.60
2022-10-07T12:01:25.588Z,11.77
2022-10-07T12:03:54.904Z,4.68
2022-10-07T12:06:22.129Z,3.30
2022-10-07T12:08:49.612Z,3.10
2022-10-07T12:11:19.865Z,3.25
2022-10-07T12:14:25.617Z,62.22
2022-10-07T12:16:55.411Z,4.22
2022-10-07T12:19:23.988Z,3.13
2022-10-07T12:22:00.390Z,15.25
2022-10-07T12:24:29.075Z,3.90
2022-10-07T12:27:06.993Z,3.70
2022-10-07T12:29:51.112Z,3.75
2022-10-07T12:32:40.436Z,3.40
2022-10-07T12:35:30.235Z,3.20
2022-10-07T12:38:18.817Z,3.40
2022-10-07T12:40:51.873Z,3.88
2022-10-07T12:43:34.648Z,3.28
2022-10-07T12:46:07.729Z,3.50
2022-10-07T12:48:45.673Z,10.98
2022-10-07T12:51:27.100Z,4.32
2022-10-07T12:53:56.189Z,4.80
2022-10-07T12:56:30.290Z,7.20
2022-10-07T12:59:34.912Z,4.47
2022-10-07T13:02:42.125Z,4.00
2022-10-07T13:05:19.338Z,4.10
2022-10-07T13:08:01.388Z,4.75
2022-10-07T13:10:37.549Z,4.55
2022-10-07T13:13:10.246Z,4.18
2022-10-07T13:16:08.646Z,4.35
2022-10-07T13:18:57.782Z,4.78
2022-10-07T13:21:33.364Z,5.60
2022-10-07T13:24:00.802Z,5.03
2022-10-07T13:26:28.198Z,5.05
2022-10-07T13:28:57.521Z,4.90
2022-10-07T13:31:31.084Z,5.40
2022-10-07T13:34:00.369Z,5.30
2022-10-07T13:36:30.899Z,5.40
2022-10-07T13:39:16.230Z,5.33
2022-10-07T13:41:47.464Z,4.35
2022-10-07T13:44:18.505Z,6.15
2022-10-07T13:47:07.291Z,4.90
2022-10-07T13:49:38.869Z,4.20
2022-10-07T13:52:17.525Z,5.28
2022-10-07T13:54:51.861Z,4.80
2022-10-07T13:57:21.466Z,4.78
2022-10-07T13:59:51.880Z,4.03
2022-10-07T14:02:20.760Z,4.43
2022-10-07T14:05:01.622Z,4.75
2022-10-07T14:07:29.612Z,5.22
2022-10-07T14:09:59.658Z,4.30
2022-10-07T14:12:35.035Z,4.70
2022-10-07T14:15:21.707Z,4.63
2022-10-07T14:17:55.361Z,5.63
2022-10-07T14:20:37.960Z,5.03
2022-10-07T14:23:26.136Z,5.10
2022-10-07T14:25:59.428Z,4.50
2022-10-07T14:28:31.512Z,4.25
2022-10-07T14:31:24.113Z,3.85
2022-10-07T14:34:15.907Z,3.75
2022-10-07T14:37:05.235Z,3.80
2022-10-07T14:39:47.929Z,4.15
2022-10-07T14:42:18.326Z,5.28
2022-10-07T14:44:45.916Z,4.38
2022-10-07T14:47:13.368Z,3.72
2022-10-07T14:49:43.428Z,4.03
2022-10-07T14:52:31.691Z,4.45
2022-10-07T14:55:01.501Z,4.38
2022-10-07T14:57:28.730Z,3.70
2022-10-07T14:59:56.345Z,4.00
2022-10-07T15:02:24.428Z,3.78
2022-10-07T15:04:51.810Z,5.15
2022-10-07T15:07:19.509Z,4.57
2022-10-07T15:09:46.966Z,4.50
2022-10-07T15:12:16.249Z,3.90
2022-10-07T15:14:43.625Z,4.03
2022-10-07T15:17:15.570Z,4.13
2022-10-07T15:19:42.842Z,4.93
2022-10-07T15:22:10.049Z,4.18
2022-10-07T15:24:37.556Z,4.18
2022-10-07T15:27:06.623Z,4.28
2022-10-07T15:29:33.822Z,5.25
2022-10-07T15:32:01.017Z,4.28
2022-10-07T15:34:28.242Z,4.30
2022-10-07T15:36:55.532Z,4.13
2022-10-07T15:39:22.771Z,4.28
2022-10-07T15:41:50.062Z,4.53
2022-10-07T15:44:19.761Z,4.40
2022-10-07T15:46:48.456Z,4.07
2022-10-07T15:49:19.118Z,4.25
2022-10-07T15:51:46.909Z,4.20
2022-10-07T15:54:14.633Z,4.80
2022-10-07T15:56:42.965Z,5.68
2022-10-07T15:59:10.597Z,4.38
2022-10-07T16:01:37.823Z,4.30
2022-10-07T16:04:06.144Z,4.88
2022-10-07T16:06:35.668Z,4.28
2022-10-07T16:09:04.017Z,4.60
2022-10-07T16:11:33.340Z,5.38
2022-10-07T16:14:02.270Z,4.00
2022-10-07T16:16:31.535Z,4.30
2022-10-07T16:19:00.527Z,3.67
2022-10-07T16:21:33.729Z,3.70
2022-10-07T16:24:06.974Z,4.72
2022-10-07T16:26:36.035Z,5.00
2022-10-07T16:29:24.711Z,4.18
2022-10-07T16:31:58.178Z,4.03
2022-10-07T16:34:27.294Z,4.20
2022-10-07T16:36:55.442Z,4.53
2022-10-07T16:39:22.851Z,5.57
2022-10-07T16:41:53.838Z,4.68
2022-10-07T16:44:22.590Z,4.30
2022-10-07T16:46:50.027Z,4.05
2022-10-07T16:49:18.726Z,4.38
2022-10-07T16:51:46.611Z,3.88
2022-10-07T16:54:16.529Z,3.78
2022-10-07T16:56:47.153Z,3.33
2022-10-07T16:59:23.901Z,3.90
2022-10-07T17:01:56.680Z,4.10
2022-10-07T17:04:25.064Z,4.07
2022-10-07T17:06:53.235Z,14.95
2022-10-07T17:09:22.273Z,13.43
2022-10-07T17:11:49.647Z,6.60
2022-10-07T17:14:20.028Z,4.03
2022-10-07T17:16:51.552Z,3.65
2022-10-07T17:19:22.139Z,4.20
2022-10-07T17:21:53.209Z,4.43
2022-10-07T17:24:23.922Z,4.73
2022-10-07T17:26:55.262Z,5.07
2022-10-07T17:29:26.352Z,4.80
2022-10-07T17:31:54.170Z,27.27
2022-10-07T17:34:22.449Z,28.98
2022-10-07T17:36:50.593Z,66.05
2022-10-07T17:39:20.299Z,53.70
2022-10-07T17:41:48.272Z,52.45
2022-10-07T17:44:15.744Z,165.63
2022-10-07T17:46:43.372Z,48.63
2022-10-07T17:49:14.553Z,61.70
2022-10-07T17:51:45.688Z,30.87
2022-10-07T17:54:14.061Z,36.10
2022-10-07T17:56:44.727Z,43.33
2022-10-07T17:59:13.414Z,63.40
2022-10-07T18:01:45.131Z,37.15
2022-10-07T18:04:15.953Z,45.50
2022-10-07T18:06:47.073Z,76.03
2022-10-07T18:09:21.017Z,58.35
2022-10-07T18:12:11.561Z,128.80
2022-10-07T18:14:57.538Z,20.77
2022-10-07T18:17:25.030Z,41.22
2022-10-07T18:19:52.505Z,35.40
2022-10-07T18:22:20.304Z,37.38
2022-10-07T18:24:47.623Z,48.97
2022-10-07T18:27:15.916Z,37.28
2022-10-07T18:29:43.152Z,14.25
2022-10-07T18:32:10.542Z,57.90
2022-10-07T18:34:38.058Z,25.52
2022-10-07T18:37:05.284Z,16.90
2022-10-07T18:39:32.485Z,15.63
2022-10-07T18:41:59.812Z,18.80
2022-10-07T18:44:27.553Z,11.48
2022-10-07T18:46:55.318Z,74.90
2022-10-07T18:49:22.799Z,169.88
2022-10-07T18:51:53.497Z,181.60
2022-10-07T18:54:21.266Z,147.15
2022-10-07T18:56:50.059Z,364.83
2022-10-07T18:59:18.857Z,175.35
2022-10-07T19:01:50.502Z,307.70
2022-10-07T19:04:19.503Z,112.80
2022-10-07T19:06:47.495Z,144.73
2022-10-07T19:09:18.353Z,237.18
2022-10-07T19:11:45.812Z,36.78
2022-10-07T19:14:13.949Z,9.18
2022-10-07T19:16:43.900Z,7.40
2022-10-07T19:19:21.774Z,8.85
2022-10-07T19:21:51.827Z,40.13
2022-10-07T19:24:19.973Z,119.07
2022-10-07T19:26:50.053Z,205.20
2022-10-07T19:29:18.327Z,122.55
2022-10-07T19:31:50.169Z,114.07
2022-10-07T19:34:22.632Z,72.82
2022-10-07T19:36:50.761Z,58.75
2022-10-07T19:39:21.305Z,56.40
2022-10-07T19:41:51.819Z,56.20
2022-10-07T19:44:19.571Z,56.30
2022-10-07T19:46:50.344Z,112.28
2022-10-07T19:49:20.754Z,100.97
2022-10-07T19:51:47.964Z,69.45
2022-10-07T19:54:15.119Z,56.70
2022-10-07T19:56:42.863Z,24.85
2022-10-07T19:59:12.666Z,73.00
2022-10-07T20:01:43.043Z,43.90
2022-10-07T20:04:16.403Z,69.53
2022-10-07T20:06:44.928Z,126.47
2022-10-07T20:09:15.014Z,41.35
2022-10-07T20:11:43.264Z,36.72
2022-10-07T20:14:15.619Z,70.07
2022-10-07T20:16:46.062Z,54.55
2022-10-07T20:19:16.634Z,40.08
2022-10-07T20:21:45.266Z,140.27
2022-10-07T20:24:14.813Z,62.00
2022-10-07T20:26:44.635Z,59.92
2022-10-07T20:29:13.985Z,60.97
2022-10-07T20:31:42.301Z,34.50
2022-10-07T20:34:15.126Z,69.70
2022-10-07T20:36:42.878Z,121.82
2022-10-07T20:39:36.650Z,54.70
2022-10-07T20:42:26.718Z,90.97
2022-10-07T20:45:07.445Z,26.38
2022-10-07T20:47:35.633Z,79.60
2022-10-07T20:50:03.239Z,52.10
2022-10-07T20:52:33.291Z,37.63
2022-10-07T20:55:00.506Z,27.13
2022-10-07T20:57:34.088Z,18.17
2022-10-07T21:00:01.371Z,20.27
2022-10-07T21:02:30.258Z,12.90
2022-10-07T21:04:59.480Z,14.63
2022-10-07T21:07:26.727Z,14.80
2022-10-07T21:09:56.454Z,10.32
2022-10-07T21:12:27.618Z,9.63
2022-10-07T21:15:00.640Z,17.65
2022-10-07T21:17:27.861Z,17.30
2022-10-07T21:19:56.074Z,9.45
2022-10-07T21:22:24.007Z,13.60
2022-10-07T21:24:52.863Z,7.45
2022-10-07T21:27:20.406Z,9.18
2022-10-07T21:29:48.849Z,12.00
2022-10-07T21:32:16.199Z,8.20
2022-10-07T21:34:49.706Z,11.20
2022-10-07T21:37:19.725Z,9.93
2022-10-07T21:39:47.286Z,22.88
2022-10-07T21:42:15.825Z,23.77
2022-10-07T21:44:44.574Z,13.70
2022-10-07T21:47:12.386Z,15.82
2022-10-07T21:49:39.615Z,14.68
2022-10-07T21:52:08.097Z,15.32
2022-10-07T21:54:38.516Z,24.50
2022-10-07T21:57:05.784Z,7.25
2022-10-07T21:59:35.228Z,7.22
2022-10-07T22:02:02.929Z,7.63
2022-10-07T22:04:30.984Z,7.47
2022-10-07T22:07:17.237Z,8.57
2022-10-07T22:09:44.504Z,8.63
2022-10-07T22:12:11.680Z,7.85
2022-10-07T22:14:39.800Z,7.85
2022-10-07T22:17:07.898Z,8.68
2022-10-07T22:19:35.108Z,12.95
2022-10-07T22:22:02.247Z,19.33
2022-10-07T22:24:29.654Z,12.68
2022-10-07T22:27:00.278Z,11.50
2022-10-07T22:29:28.528Z,10.10
2022-10-07T22:31:55.818Z,9.40
2022-10-07T22:34:42.799Z,7.43
2022-10-07T22:37:10.377Z,7.45
2022-10-07T22:39:37.848Z,8.00
2022-10-07T22:42:05.422Z,9.40
2022-10-07T22:44:33.406Z,12.27
2022-10-07T22:47:00.989Z,13.85
2022-10-07T22:49:30.275Z,13.60
2022-10-07T22:51:59.804Z,10.10
2022-10-07T22:54:27.457Z,9.57
2022-10-07T22:56:55.054Z,9.05
2022-10-07T22:59:22.201Z,7.80
2022-10-07T23:01:49.403Z,7.05
2022-10-07T23:04:20.358Z,7.40
2022-10-07T23:06:47.750Z,6.90
2022-10-07T23:09:15.553Z,6.82
2022-10-07T23:11:42.946Z,6.53
2022-10-07T23:14:10.222Z,6.75
2022-10-07T23:16:38.266Z,6.40
2022-10-07T23:19:05.467Z,6.30
2022-10-07T23:21:35.787Z,6.63
2022-10-07T23:24:07.705Z,6.95
2022-10-07T23:26:36.521Z,6.80
2022-10-07T23:29:04.351Z,8.80
2022-10-07T23:31:32.729Z,8.35
2022-10-07T23:34:01.433Z,7.82
2022-10-07T23:36:29.735Z,5.43
2022-10-07T23:38:59.132Z,5.57
2022-10-07T23:41:29.266Z,5.40
2022-10-07T23:43:58.858Z,7.25
2022-10-07T23:46:27.703Z,7.55
2022-10-07T23:48:56.260Z,5.68
2022-10-07T23:51:26.195Z,4.78
2022-10-07T23:53:55.646Z,5.45
2022-10-07T23:56:23.110Z,5.65
2022-10-07T23:58:51.277Z,5.57
